Time;durP1;ratioP1;P1;durP2;ratioP2;P2;SDS_P1;SDS_P2;PMS_P1;PMS_P2;Temp;Humidity;BMP_temperature;BMP_pressure;BME280_temperature;BME280_humidity;BME280_pressure;Samples;Min_cycle;Max_cycle;Signal;HPM_P1;HPM_P2
2023/07/09 00:00:18;;;;;;;14.70;9.45;;;21.40;99.90;;;;;;4937051;28;20042;-84
2023/07/09 00:02:49;;;;;;;14.10;9.23;;;21.30;99.90;;;;;;4953617;28;20083;-83
2023/07/09 00:05:16;;;;;;;11.77;8.73;;;21.30;99.90;;;;;;4969144;28;20073;-84
2023/07/09 00:07:44;;;;;;;11.13;9.00;;;21.30;99.90;;;;;;4968971;28;20081;-84
2023/07/09 00:10:18;;;;;;;14.80;9.23;;;21.20;99.90;;;;;;4937111;28;20039;-84
2023/07/09 00:12:44;;;;;;;15.10;9.15;;;21.20;99.90;;;;;;4952666;28;20046;-84
2023/07/09 00:15:18;;;;;;;11.18;9.00;;;21.20;99.90;;;;;;4985612;28;20043;-84
2023/07/09 00:17:44;;;;;;;13.50;9.32;;;21.20;99.90;;;;;;4936816;28;20042;-85
2023/07/09 00:20:17;;;;;;;17.75;9.60;;;21.20;99.90;;;;;;4968921;28;20262;-84
2023/07/09 00:22:51;;;;;;;17.45;9.57;;;21.10;99.90;;;;;;4948589;29;20561;-84
2023/07/09 00:25:19;;;;;;;13.65;9.10;;;21.10;99.90;;;;;;4965624;28;20047;-84
2023/07/09 00:27:48;;;;;;;13.23;9.73;;;21.10;99.90;;;;;;4965770;28;20039;-85
2023/07/09 00:30:17;;;;;;;12.38;8.82;;;21.00;99.90;;;;;;4965510;28;20071;-84
2023/07/09 00:32:43;;;;;;;13.98;8.63;;;21.00;99.90;;;;;;4965656;28;20510;-84
2023/07/09 00:35:15;;;;;;;13.20;8.77;;;21.00;99.90;;;;;;4965117;28;20074;-84
2023/07/09 00:37:43;;;;;;;11.15;9.00;;;20.90;99.90;;;;;;4965426;28;20082;-84
2023/07/09 00:40:22;;;;;;;15.40;9.65;;;20.80;99.90;;;;;;4965459;28;20035;-85
2023/07/09 00:42:50;;;;;;;16.88;9.73;;;20.80;99.90;;;;;;4949422;28;20071;-84
2023/07/09 00:45:24;;;;;;;11.55;9.07;;;20.70;99.90;;;;;;4965596;28;20035;-84
2023/07/09 00:47:58;;;;;;;13.45;9.10;;;20.70;99.90;;;;;;4950056;28;20046;-84
2023/07/09 00:50:41;;;;;;;10.90;8.43;;;20.60;99.90;;;;;;4949482;29;20049;-84
2023/07/09 00:53:33;;;;;;;15.57;9.23;;;20.60;99.90;;;;;;4952259;28;20040;-84
2023/07/09 00:56:07;;;;;;;12.50;8.68;;;20.60;99.90;;;;;;4953556;28;20081;-84
2023/07/09 00:58:35;;;;;;;12.18;9.82;;;20.50;99.90;;;;;;4967481;28;20095;-84
2023/07/09 01:01:03;;;;;;;12.07;9.55;;;20.50;99.90;;;;;;4981490;28;20039;-84
2023/07/09 01:03:36;;;;;;;11.48;9.38;;;20.40;99.90;;;;;;4965504;28;20573;-84
2023/07/09 01:06:03;;;;;;;;;;;20.40;99.90;;;;;;4965071;28;20042;-85
2023/07/09 01:08:33;;;;;;;12.75;10.50;;;20.40;99.90;;;;;;4950313;29;20001;-84
2023/07/09 01:10:59;;;;;;;15.35;9.52;;;20.40;99.90;;;;;;4933048;29;20606;-84
2023/07/09 01:13:26;;;;;;;13.57;10.10;;;20.30;99.90;;;;;;4965124;28;20046;-84
2023/07/09 01:15:53;;;;;;;12.63;9.25;;;20.30;99.90;;;;;;4933568;29;20047;-85
2023/07/09 01:18:24;;;;;;;15.18;9.77;;;20.30;99.90;;;;;;4951628;28;20031;-84
2023/07/09 01:21:07;;;;;;;12.60;9.35;;;20.20;99.90;;;;;;4967938;28;20121;-84
2023/07/09 01:23:32;;;;;;;13.35;9.77;;;20.20;99.90;;;;;;4965421;28;20059;-84
2023/07/09 01:25:58;;;;;;;12.75;9.35;;;20.30;99.90;;;;;;4949448;29;20092;-84
2023/07/09 01:28:24;;;;;;;17.95;9.93;;;20.20;99.90;;;;;;4952404;28;20122;-84
2023/07/09 01:30:53;;;;;;;13.50;9.70;;;20.20;99.90;;;;;;4952643;28;20058;-84
2023/07/09 01:33:22;;;;;;;13.85;10.13;;;20.00;99.90;;;;;;4936091;29;20043;-85
2023/07/09 01:35:48;;;;;;;14.73;9.73;;;20.20;99.90;;;;;;4985028;28;20438;-84
2023/07/09 01:38:13;;;;;;;13.52;9.38;;;20.10;99.90;;;;;;4952980;29;20043;-84
2023/07/09 01:40:39;;;;;;;12.23;9.57;;;20.10;99.90;;;;;;4984774;28;20039;-84
2023/07/09 01:43:06;;;;;;;17.58;10.80;;;20.10;99.90;;;;;;4986423;28;20055;-84
2023/07/09 01:45:33;;;;;;;14.30;10.02;;;20.00;99.90;;;;;;4958255;28;20086;-84
2023/07/09 01:47:58;;;;;;;14.18;9.65;;;20.10;99.90;;;;;;4941839;29;20036;-84
2023/07/09 01:50:26;;;;;;;16.63;10.20;;;20.00;99.90;;;;;;4952853;28;20474;-84
2023/07/09 01:52:53;;;;;;;13.05;9.80;;;20.00;99.90;;;;;;4936294;29;20050;-84
2023/07/09 01:55:21;;;;;;;11.68;9.75;;;20.00;99.90;;;;;;4952211;28;20043;-83
2023/07/09 01:57:48;;;;;;;12.55;9.20;;;19.90;99.90;;;;;;4967859;28;20047;-83
2023/07/09 02:00:17;;;;;;;13.50;11.07;;;19.90;99.90;;;;;;4952766;28;20051;-83
2023/07/09 02:02:46;;;;;;;14.00;10.52;;;19.90;99.90;;;;;;4953031;28;20093;-83
2023/07/09 02:05:16;;;;;;;17.45;10.30;;;19.90;99.90;;;;;;4984243;28;20506;-83
2023/07/09 02:07:42;;;;;;;14.32;10.48;;;19.80;99.90;;;;;;4968208;28;20039;-82
2023/07/09 02:10:08;;;;;;;12.73;9.07;;;19.80;99.90;;;;;;4968052;28;20105;-85
2023/07/09 02:12:34;;;;;;;13.82;9.70;;;19.80;99.90;;;;;;4967691;28;20046;-83
2023/07/09 02:15:00;;;;;;;12.13;10.23;;;19.80;99.90;;;;;;4952079;28;20047;-83
2023/07/09 02:17:25;;;;;;;20.02;10.32;;;19.70;99.90;;;;;;4983496;28;20042;-83
2023/07/09 02:19:51;;;;;;;13.95;9.88;;;19.70;99.90;;;;;;4936140;29;20478;-83
2023/07/09 02:22:19;;;;;;;15.52;11.27;;;19.70;99.90;;;;;;4970264;28;20046;-84
2023/07/09 02:24:45;;;;;;;12.85;10.05;;;19.70;99.90;;;;;;4955397;28;20045;-83
2023/07/09 02:27:13;;;;;;;17.77;10.43;;;19.60;99.90;;;;;;4938778;28;20472;-84
2023/07/09 02:29:39;;;;;;;13.02;10.13;;;19.60;99.90;;;;;;4954039;28;20035;-83
2023/07/09 02:32:05;;;;;;;16.33;11.25;;;19.60;99.90;;;;;;4954333;28;20090;-83
2023/07/09 02:34:31;;;;;;;15.63;10.55;;;19.50;99.90;;;;;;4938778;28;20553;-83
2023/07/09 02:36:58;;;;;;;12.95;10.43;;;19.50;99.90;;;;;;4938850;28;20045;-83
2023/07/09 02:39:25;;;;;;;14.18;10.57;;;19.50;99.90;;;;;;4956571;28;20122;-83
2023/07/09 02:41:50;;;;;;;19.70;11.15;;;19.50;99.90;;;;;;4941877;28;20039;-82
2023/07/09 02:44:17;;;;;;;14.30;12.15;;;19.50;99.90;;;;;;4955950;28;20046;-84
2023/07/09 02:46:43;;;;;;;16.83;11.90;;;19.40;99.90;;;;;;4954064;28;20117;-83
2023/07/09 02:49:11;;;;;;;17.42;11.70;;;19.40;99.90;;;;;;4954519;28;20034;-85
2023/07/09 02:51:37;;;;;;;12.88;11.57;;;19.30;99.90;;;;;;4954621;28;20042;-83
2023/07/09 02:54:04;;;;;;;19.52;12.23;;;19.30;99.90;;;;;;4938635;28;20054;-83
2023/07/09 02:56:30;;;;;;;14.07;12.60;;;19.30;99.90;;;;;;4938122;28;20047;-82
2023/07/09 02:58:56;;;;;;;15.73;12.25;;;19.30;99.90;;;;;;4938267;28;20081;-82
2023/07/09 03:01:24;;;;;;;15.15;13.02;;;19.20;99.90;;;;;;4937303;28;20031;-82
2023/07/09 03:04:01;;;;;;;13.32;11.65;;;19.20;99.90;;;;;;4953383;28;20043;-83
2023/07/09 03:06:28;;;;;;;16.52;11.73;;;19.20;99.90;;;;;;4938202;28;20502;-83
2023/07/09 03:08:54;;;;;;;13.65;11.73;;;19.20;99.90;;;;;;4969803;28;20481;-83
2023/07/09 03:11:22;;;;;;;16.52;12.20;;;19.10;99.90;;;;;;4953753;28;20039;-83
2023/07/09 03:13:48;;;;;;;14.23;12.75;;;19.10;99.90;;;;;;4953962;28;20046;-83
2023/07/09 03:16:15;;;;;;;16.85;14.88;;;19.10;99.90;;;;;;4937228;28;20050;-82
2023/07/09 03:18:40;;;;;;;13.57;12.15;;;19.00;99.90;;;;;;4937938;28;20039;-82
2023/07/09 03:21:06;;;;;;;16.00;14.32;;;19.10;99.90;;;;;;4953763;28;20504;-83
2023/07/09 03:23:32;;;;;;;12.88;11.18;;;19.00;99.90;;;;;;4985671;28;20540;-83
2023/07/09 03:25:59;;;;;;;15.57;13.35;;;19.00;99.90;;;;;;4971167;28;20103;-83
2023/07/09 03:28:25;;;;;;;13.75;11.45;;;19.00;99.90;;;;;;4953904;28;20035;-83
2023/07/09 03:30:54;;;;;;;15.55;12.98;;;18.90;99.90;;;;;;4953289;28;20113;-83
2023/07/09 03:33:23;;;;;;;14.32;12.82;;;18.90;99.90;;;;;;4953770;28;20035;-83
2023/07/09 03:35:52;;;;;;;16.45;14.75;;;18.90;99.90;;;;;;4990389;28;20045;-84
2023/07/09 03:38:18;;;;;;;14.13;11.93;;;18.90;99.90;;;;;;4973681;28;20073;-83
2023/07/09 03:40:44;;;;;;;19.48;17.65;;;19.10;99.90;;;;;;4970425;28;20078;-84
2023/07/09 03:43:10;;;;;;;15.20;12.23;;;18.90;99.90;;;;;;4937507;28;20078;-83
2023/07/09 03:45:37;;;;;;;17.45;15.52;;;18.90;99.90;;;;;;4970343;28;20082;-83
2023/07/09 03:48:04;;;;;;;17.35;15.23;;;19.00;99.90;;;;;;4969623;28;20042;-83
2023/07/09 03:50:30;;;;;;;15.80;13.52;;;19.00;99.90;;;;;;4952867;28;20085;-83
2023/07/09 03:52:56;;;;;;;15.32;13.70;;;19.00;99.90;;;;;;4937265;28;20087;-83
2023/07/09 03:55:21;;;;;;;16.33;13.95;;;19.00;99.90;;;;;;4937316;28;20104;-83
2023/07/09 03:57:47;;;;;;;14.68;11.57;;;19.10;99.90;;;;;;4937073;28;20446;-83
2023/07/09 04:00:14;;;;;;;16.05;11.07;;;19.10;99.90;;;;;;4969984;28;20054;-83
2023/07/09 04:02:40;;;;;;;12.93;11.07;;;19.20;99.90;;;;;;4937016;28;20121;-83
2023/07/09 04:05:10;;;;;;;13.95;11.30;;;19.20;99.90;;;;;;4952935;28;20042;-83
2023/07/09 04:07:36;;;;;;;16.05;11.35;;;19.20;99.90;;;;;;4937023;28;20039;-83
2023/07/09 04:10:02;;;;;;;13.85;12.52;;;19.20;99.90;;;;;;4937162;28;20046;-83
2023/07/09 04:12:28;;;;;;;12.50;10.48;;;19.40;99.90;;;;;;4953187;28;20039;-83
2023/07/09 04:14:54;;;;;;;15.13;11.07;;;19.40;99.90;;;;;;4936577;28;20465;-83
2023/07/09 04:17:23;;;;;;;15.23;13.18;;;19.40;99.90;;;;;;4985246;28;20035;-82
2023/07/09 04:19:52;;;;;;;12.75;10.07;;;19.50;99.90;;;;;;4969213;28;20134;-83
2023/07/09 04:22:18;;;;;;;11.13;10.02;;;19.50;99.90;;;;;;4985019;28;20137;-83
2023/07/09 04:24:45;;;;;;;12.68;11.38;;;19.70;99.90;;;;;;4936981;28;20051;-83
2023/07/09 04:27:13;;;;;;;13.13;9.93;;;19.70;99.90;;;;;;4968661;28;20142;-83
2023/07/09 04:29:39;;;;;;;15.13;10.05;;;19.80;99.90;;;;;;4953049;28;20625;-84
2023/07/09 04:32:12;;;;;;;11.50;9.52;;;19.90;99.90;;;;;;4974205;28;20097;-83
2023/07/09 04:34:39;;;;;;;13.65;10.02;;;20.00;99.90;;;;;;4972302;28;20070;-83
2023/07/09 04:37:07;;;;;;;13.15;9.77;;;20.10;99.90;;;;;;4954263;28;20187;-83
2023/07/09 04:39:33;;;;;;;13.68;10.80;;;20.20;99.90;;;;;;4952115;28;20045;-83
2023/07/09 04:41:59;;;;;;;11.00;9.05;;;20.30;99.90;;;;;;4969610;28;20035;-83
2023/07/09 04:44:25;;;;;;;10.52;9.43;;;20.30;99.90;;;;;;4952879;28;20105;-83
2023/07/09 04:46:50;;;;;;;11.27;9.05;;;20.40;99.90;;;;;;4968972;28;20046;-84
2023/07/09 04:49:16;;;;;;;10.63;9.02;;;20.50;99.90;;;;;;4953029;28;20099;-84
2023/07/09 04:51:42;;;;;;;12.23;8.85;;;20.70;99.90;;;;;;4952902;28;20035;-84
2023/07/09 04:54:07;;;;;;;14.23;9.45;;;20.80;99.90;;;;;;4940553;28;20042;-84
2023/07/09 04:56:33;;;;;;;12.05;9.23;;;20.90;99.90;;;;;;4971801;28;20049;-85
2023/07/09 04:58:59;;;;;;;10.50;9.30;;;21.00;99.90;;;;;;4956825;28;20054;-84
2023/07/09 05:01:25;;;;;;;12.20;8.85;;;21.10;99.90;;;;;;4972674;28;20031;-84
2023/07/09 05:03:50;;;;;;;11.63;8.85;;;21.10;99.90;;;;;;4972512;28;20042;-84
2023/07/09 05:06:16;;;;;;;10.40;8.98;;;21.30;99.90;;;;;;4956604;28;20042;-84
2023/07/09 05:08:42;;;;;;;12.07;8.43;;;21.40;99.90;;;;;;4956464;28;20614;-84
2023/07/09 05:11:10;;;;;;;11.90;8.45;;;21.50;99.90;;;;;;4971561;28;20043;-84
2023/07/09 05:13:36;;;;;;;10.45;8.43;;;21.60;99.90;;;;;;4955943;28;20450;-83
2023/07/09 05:16:02;;;;;;;12.40;9.00;;;21.80;99.90;;;;;;4971510;28;20113;-84
2023/07/09 05:18:28;;;;;;;12.65;8.10;;;22.00;99.90;;;;;;4955725;28;20043;-84
2023/07/09 05:20:55;;;;;;;12.10;8.52;;;22.20;99.90;;;;;;4955935;28;20126;-82
2023/07/09 05:23:21;;;;;;;11.52;8.13;;;22.40;99.90;;;;;;4939797;28;20101;-81
2023/07/09 05:25:47;;;;;;;9.32;7.97;;;22.60;99.90;;;;;;4955302;28;20034;-81
2023/07/09 05:28:13;;;;;;;14.20;8.38;;;22.90;99.90;;;;;;4955597;28;20098;-81
2023/07/09 05:30:41;;;;;;;12.15;7.75;;;23.40;99.90;;;;;;4955838;28;20039;-81
2023/07/09 05:33:07;;;;;;;10.10;7.93;;;24.20;99.90;;;;;;4987855;28;20047;-82
2023/07/09 05:35:33;;;;;;;10.10;7.82;;;24.90;99.90;;;;;;4955805;28;20413;-82
2023/07/09 05:37:58;;;;;;;11.68;7.50;;;25.40;99.90;;;;;;4955669;28;20418;-81
2023/07/09 05:40:24;;;;;;;11.20;7.50;;;25.40;99.90;;;;;;4954998;28;20093;-82
2023/07/09 05:42:50;;;;;;;8.88;6.93;;;25.50;99.90;;;;;;4987361;28;20034;-79
2023/07/09 05:45:16;;;;;;;12.02;6.90;;;25.80;99.90;;;;;;4939468;28;20047;-81
2023/07/09 05:47:42;;;;;;;11.35;7.68;;;26.50;99.90;;;;;;4972530;28;20074;-81
2023/07/09 05:50:10;;;;;;;16.17;7.63;;;27.30;99.90;;;;;;4973232;28;20066;-81
2023/07/09 05:52:36;;;;;;;10.73;8.00;;;27.80;99.90;;;;;;4992982;28;20050;-84
2023/07/09 05:55:01;;;;;;;10.13;7.68;;;28.10;99.80;;;;;;4954357;28;20043;-83
2023/07/09 05:57:27;;;;;;;12.80;9.35;;;28.20;98.90;;;;;;4954868;28;20059;-83
2023/07/09 05:59:53;;;;;;;13.15;9.55;;;27.90;98.60;;;;;;4937640;28;20066;-83
2023/07/09 06:02:22;;;;;;;13.60;12.20;;;27.70;98.50;;;;;;4955155;28;20050;-83
2023/07/09 06:04:51;;;;;;;14.80;13.10;;;27.30;98.60;;;;;;4954379;28;20054;-84
2023/07/09 06:07:18;;;;;;;14.70;12.70;;;27.00;99.30;;;;;;4939896;28;20046;-84
2023/07/09 06:09:45;;;;;;;19.10;17.48;;;26.70;99.40;;;;;;4972260;28;20098;-84
2023/07/09 06:12:11;;;;;;;15.93;13.90;;;26.50;99.90;;;;;;4939661;28;20039;-83
2023/07/09 06:14:37;;;;;;;11.77;10.57;;;26.20;99.90;;;;;;4972942;28;20064;-82
2023/07/09 06:17:03;;;;;;;14.30;12.85;;;26.00;99.90;;;;;;4954965;28;20047;-83
2023/07/09 06:19:29;;;;;;;12.13;10.90;;;26.00;99.90;;;;;;4987372;28;20047;-83
2023/07/09 06:21:55;;;;;;;18.55;16.85;;;26.10;99.90;;;;;;4987116;28;20126;-83
2023/07/09 06:24:21;;;;;;;19.30;17.70;;;26.10;99.90;;;;;;4986235;28;20055;-83
2023/07/09 06:26:47;;;;;;;12.80;8.00;;;26.30;99.90;;;;;;4938024;28;20031;-84
2023/07/09 06:29:13;;;;;;;12.45;9.75;;;26.60;99.90;;;;;;4970707;28;20101;-84
2023/07/09 06:31:40;;;;;;;15.60;9.65;;;26.90;99.90;;;;;;4954414;28;20038;-83
2023/07/09 06:34:07;;;;;;;21.05;19.17;;;27.30;99.90;;;;;;4971983;28;20093;-84
2023/07/09 06:36:33;;;;;;;53.13;49.50;;;27.90;99.50;;;;;;4938587;28;20078;-84
2023/07/09 06:38:58;;;;;;;140.05;131.57;;;28.80;99.60;;;;;;4938035;28;20082;-84
2023/07/09 06:41:24;;;;;;;227.73;214.00;;;29.60;98.60;;;;;;4938067;28;20043;-83
2023/07/09 06:43:50;;;;;;;285.17;267.65;;;30.20;96.70;;;;;;4971307;28;20042;-84
2023/07/09 06:46:18;;;;;;;321.98;302.10;;;30.80;96.80;;;;;;4954418;28;20117;-84
2023/07/09 06:48:44;;;;;;;365.83;343.55;;;31.00;94.50;;;;;;4938319;28;20031;-84
2023/07/09 06:51:10;;;;;;;442.10;413.02;;;31.40;95.70;;;;;;4938136;28;20037;-84
2023/07/09 06:53:36;;;;;;;476.02;444.05;;;31.70;95.30;;;;;;4970985;28;20085;-84
2023/07/09 06:56:02;;;;;;;601.20;556.53;;;32.00;95.40;;;;;;4937332;28;20049;-84
2023/07/09 06:58:31;;;;;;;740.80;681.10;;;32.10;94.60;;;;;;4971182;28;20070;-83
2023/07/09 07:00:57;;;;;;;936.10;849.15;;;32.60;94.90;;;;;;4954137;28;20089;-84
2023/07/09 07:03:24;;;;;;;1072.57;956.15;;;32.80;93.80;;;;;;4953932;28;20097;-84
2023/07/09 07:05:57;;;;;;;1224.20;994.78;;;32.80;93.90;;;;;;4954319;28;20455;-84
2023/07/09 07:08:26;;;;;;;1206.50;999.30;;;32.70;93.70;;;;;;4937396;28;20042;-84
2023/07/09 07:11:04;;;;;;;1457.35;999.90;;;32.70;93.90;;;;;;4953734;28;20038;-82
2023/07/09 07:13:31;;;;;;;1364.40;999.90;;;32.20;93.60;;;;;;4955050;28;20057;-91
2023/07/09 07:15:57;;;;;;;1410.25;999.90;;;32.20;94.10;;;;;;4947037;28;20062;-96
2023/07/09 07:18:25;;;;;;;1652.30;999.90;;;32.70;93.30;;;;;;4941951;28;20461;-84
2023/07/09 07:20:51;;;;;;;1651.35;999.90;;;33.10;93.90;;;;;;4973554;28;20038;-84
2023/07/09 07:23:17;;;;;;;1999.90;999.90;;;33.60;93.90;;;;;;4954831;28;20190;-83
2023/07/09 07:25:44;;;;;;;1999.90;999.90;;;34.30;93.50;;;;;;4953394;28;20070;-84
2023/07/09 07:28:10;;;;;;;1981.47;999.90;;;34.40;93.50;;;;;;4953250;28;20516;-83
2023/07/09 07:30:36;;;;;;;1999.90;999.90;;;34.60;93.20;;;;;;4952713;28;20043;-83
2023/07/09 07:33:02;;;;;;;1999.90;999.90;;;34.80;93.00;;;;;;4954205;28;20101;-83
2023/07/09 07:35:27;;;;;;;1999.90;999.90;;;35.00;92.70;;;;;;4970392;28;20449;-83
2023/07/09 07:37:53;;;;;;;1999.90;999.90;;;34.50;92.90;;;;;;4937426;28;20043;-84
2023/07/09 07:40:22;;;;;;;1999.90;999.90;;;34.20;93.10;;;;;;4953434;28;20035;-84
2023/07/09 07:42:48;;;;;;;1999.90;999.90;;;34.00;92.90;;;;;;4953574;28;20485;-83
2023/07/09 07:45:13;;;;;;;1999.90;999.90;;;33.80;93.40;;;;;;4937627;28;20090;-84
2023/07/09 07:47:39;;;;;;;1999.90;999.90;;;33.60;93.60;;;;;;4953178;28;20062;-84
2023/07/09 07:50:07;;;;;;;1999.90;999.90;;;33.60;93.50;;;;;;4953415;28;20031;-84
2023/07/09 07:52:37;;;;;;;1999.90;999.90;;;33.90;93.80;;;;;;4970814;28;20043;-84
2023/07/09 07:55:05;;;;;;;1999.90;999.90;;;34.60;93.60;;;;;;4953539;28;20046;-84
2023/07/09 07:57:30;;;;;;;1999.90;999.90;;;35.10;93.50;;;;;;4937400;28;20052;-83
2023/07/09 07:59:56;;;;;;;1999.90;999.90;;;35.30;93.20;;;;;;4953229;28;20405;-83
2023/07/09 08:02:23;;;;;;;1999.90;999.90;;;35.80;92.90;;;;;;4985571;28;20093;-83
2023/07/09 08:04:52;;;;;;;1999.90;999.90;;;36.10;92.40;;;;;;4952566;28;20054;-83
2023/07/09 08:07:21;;;;;;;1999.90;999.90;;;36.30;92.00;;;;;;4953258;28;20035;-83
2023/07/09 08:09:47;;;;;;;1999.90;999.90;;;36.10;91.80;;;;;;4937503;28;20557;-83
2023/07/09 08:12:14;;;;;;;1999.90;999.90;;;36.00;92.00;;;;;;4953486;28;20082;-83
2023/07/09 08:14:41;;;;;;;1999.90;999.90;;;36.00;92.00;;;;;;4937642;28;20405;-83
2023/07/09 08:17:08;;;;;;;1999.90;999.90;;;36.20;91.90;;;;;;4960717;28;20133;-83
2023/07/09 08:19:48;;;;;;;1999.90;999.90;;;36.50;91.90;;;;;;4953537;28;20046;-83
2023/07/09 08:22:15;;;;;;;1999.90;999.90;;;36.60;91.50;;;;;;4985232;28;20046;-83
2023/07/09 08:24:40;;;;;;;1999.90;999.90;;;36.90;91.50;;;;;;4953265;28;20050;-83
2023/07/09 08:27:07;;;;;;;1999.90;999.90;;;36.90;91.60;;;;;;4987169;28;20042;-84
2023/07/09 08:29:33;;;;;;;1999.90;999.90;;;36.80;91.40;;;;;;4991718;28;20366;-84
2023/07/09 08:31:59;;;;;;;1999.90;999.90;;;36.60;91.20;;;;;;4991567;28;20089;-84
2023/07/09 08:34:24;;;;;;;1999.90;999.90;;;36.30;91.30;;;;;;4958952;28;20038;-84
2023/07/09 08:36:50;;;;;;;1999.90;999.90;;;35.80;90.90;;;;;;4976770;28;20038;-84
2023/07/09 08:39:16;;;;;;;1999.90;999.90;;;35.60;91.40;;;;;;4942724;28;20098;-84
2023/07/09 08:42:07;;;;;;;1999.90;999.90;;;35.70;91.50;;;;;;4942982;28;20058;-83
2023/07/09 08:44:41;;;;;;;1999.90;999.90;;;35.60;91.40;;;;;;4958718;28;20078;-83
2023/07/09 08:47:11;;;;;;;1999.90;999.90;;;35.40;91.20;;;;;;4942964;28;20054;-84
2023/07/09 08:49:45;;;;;;;1999.90;999.90;;;35.20;91.30;;;;;;4958634;28;20042;-83
2023/07/09 08:52:29;;;;;;;1999.90;999.90;;;35.30;91.50;;;;;;4942718;28;20038;-83
2023/07/09 08:54:57;;;;;;;1999.90;999.90;;;35.30;91.50;;;;;;4959012;28;20047;-83
2023/07/09 08:57:27;;;;;;;1999.90;999.90;;;35.30;92.00;;;;;;4942818;28;20405;-83
2023/07/09 09:00:13;;;;;;;1999.90;999.90;;;35.20;91.30;;;;;;4959068;28;20046;-83
2023/07/09 09:03:21;;;;;;;1999.90;999.90;;;35.30;91.60;;;;;;4942053;28;20051;-82
2023/07/09 09:05:52;;;;;;;1999.90;999.90;;;35.30;91.70;;;;;;4959895;28;20061;-83
2023/07/09 09:08:42;;;;;;;1999.90;999.90;;;35.40;91.80;;;;;;4976248;28;20034;-82
2023/07/09 09:11:43;;;;;;;1999.90;999.90;;;35.10;91.40;;;;;;4958895;28;20049;-83
2023/07/09 09:14:32;;;;;;;1999.90;999.90;;;35.00;91.20;;;;;;4943267;28;20045;-82
2023/07/09 09:16:59;;;;;;;1999.90;999.90;;;34.80;91.90;;;;;;4976008;28;20485;-82
2023/07/09 09:19:33;;;;;;;1999.90;999.90;;;34.90;92.10;;;;;;4958190;28;20524;-83
2023/07/09 09:22:04;;;;;;;1999.90;999.90;;;35.20;92.30;;;;;;4958320;28;20131;-82
2023/07/09 09:24:46;;;;;;;1999.90;999.90;;;35.10;92.10;;;;;;4958486;28;20047;-83
2023/07/09 09:27:12;;;;;;;1999.90;999.90;;;35.20;91.10;;;;;;4942410;28;20448;-83
2023/07/09 09:29:38;;;;;;;1999.90;999.90;;;34.80;91.10;;;;;;4942310;28;20163;-83
2023/07/09 09:32:23;;;;;;;1999.90;999.90;;;35.10;91.80;;;;;;4942170;28;20129;-83
2023/07/09 09:34:48;;;;;;;1999.90;999.90;;;35.30;91.30;;;;;;4958826;28;20046;-84
2023/07/09 09:37:27;;;;;;;1999.90;999.90;;;35.30;91.30;;;;;;4958452;28;20408;-83
2023/07/09 09:39:53;;;;;;;1999.90;999.90;;;35.10;91.40;;;;;;4955839;28;20093;-83
2023/07/09 09:42:23;;;;;;;1999.90;999.90;;;35.10;91.50;;;;;;4987532;28;20457;-83
2023/07/09 09:44:55;;;;;;;1999.90;999.90;;;34.90;91.30;;;;;;4939574;28;20089;-84
2023/07/09 09:47:23;;;;;;;;;;;35.00;91.60;;;;;;4955554;28;20118;-84
2023/07/09 09:49:48;;;;;;;1999.90;999.90;;;34.90;91.70;;;;;;4955242;28;19918;-83
2023/07/09 09:52:18;;;;;;;1999.90;999.90;;;35.20;91.90;;;;;;4971122;28;20165;-83
2023/07/09 09:54:54;;;;;;;1999.90;999.90;;;35.40;91.90;;;;;;4955510;28;20129;-84
2023/07/09 09:57:23;;;;;;;1999.90;999.90;;;35.60;91.60;;;;;;4938886;28;20039;-83
2023/07/09 09:59:54;;;;;;;1999.90;999.90;;;35.50;91.70;;;;;;4939233;28;20043;-83
2023/07/09 10:02:24;;;;;;;1999.90;999.90;;;35.60;91.80;;;;;;4954785;28;20230;-84
2023/07/09 10:04:51;;;;;;;1999.90;999.90;;;35.50;91.30;;;;;;4939064;28;20046;-84
2023/07/09 10:07:29;;;;;;;1999.90;999.90;;;35.10;91.70;;;;;;4972285;28;20520;-83
2023/07/09 10:09:55;;;;;;;1999.90;999.90;;;35.30;92.20;;;;;;4955635;28;20822;-84
2023/07/09 10:12:55;;;;;;;1999.90;999.90;;;35.40;92.00;;;;;;4987030;28;20039;-83
2023/07/09 10:15:39;;;;;;;1999.90;999.90;;;35.40;90.70;;;;;;4971880;28;20082;-84
2023/07/09 10:18:28;;;;;;;1999.90;999.90;;;34.90;91.30;;;;;;4938684;28;20050;-85
2023/07/09 10:21:17;;;;;;;1999.90;999.90;;;34.50;91.60;;;;;;4938473;28;20501;-84
2023/07/09 10:24:16;;;;;;;1999.90;999.90;;;34.50;92.30;;;;;;4954448;28;20055;-85
2023/07/09 10:26:50;;;;;;;1999.90;999.90;;;34.70;92.20;;;;;;4971813;28;20097;-84
2023/07/09 10:29:46;;;;;;;1999.90;999.90;;;34.70;92.50;;;;;;4954911;28;20138;-83
2023/07/09 10:32:41;;;;;;;1999.90;999.90;;;34.80;92.50;;;;;;4938569;28;20054;-83
2023/07/09 10:35:41;;;;;;;1999.90;999.90;;;34.80;91.90;;;;;;4932344;28;20066;-83
2023/07/09 10:38:21;;;;;;;1999.90;999.90;;;34.80;91.70;;;;;;4954397;28;20062;-83
2023/07/09 10:40:54;;;;;;;1999.90;999.90;;;34.70;91.80;;;;;;4938556;28;20410;-82
2023/07/09 10:43:31;;;;;;;1999.90;999.90;;;34.40;91.60;;;;;;4938250;28;20043;-83
2023/07/09 10:46:02;;;;;;;1999.90;999.90;;;34.40;92.40;;;;;;4953965;28;20387;-83
2023/07/09 10:48:37;;;;;;;1999.90;999.90;;;34.50;91.90;;;;;;4939114;28;20047;-83
2023/07/09 10:51:04;;;;;;;1999.90;999.90;;;34.50;91.80;;;;;;4971314;28;20106;-83
2023/07/09 10:53:38;;;;;;;1999.90;999.90;;;34.50;92.00;;;;;;4939031;28;20070;-83
2023/07/09 10:56:19;;;;;;;1999.90;999.90;;;34.50;91.70;;;;;;4954498;28;20062;-83
2023/07/09 10:59:10;;;;;;;1999.90;999.90;;;34.20;91.90;;;;;;4938111;28;20078;-83
2023/07/09 11:01:41;;;;;;;1999.90;999.90;;;34.20;92.70;;;;;;4954539;28;20480;-83
2023/07/09 11:04:33;;;;;;;1999.90;999.90;;;34.50;92.80;;;;;;4954445;28;20049;-83
2023/07/09 11:07:03;;;;;;;1999.90;999.90;;;34.70;91.80;;;;;;4939054;28;20371;-84
2023/07/09 11:09:31;;;;;;;1999.90;999.90;;;34.80;91.70;;;;;;4944521;28;20039;-83
2023/07/09 11:12:03;;;;;;;1999.90;999.90;;;34.80;90.90;;;;;;4947672;28;20039;-83
2023/07/09 11:14:40;;;;;;;1999.90;999.90;;;34.80;91.50;;;;;;4938606;28;20440;-84
2023/07/09 11:17:11;;;;;;;1999.90;999.90;;;34.80;91.60;;;;;;4954756;28;20612;-84
2023/07/09 11:19:43;;;;;;;1999.90;999.90;;;34.60;91.60;;;;;;4938439;28;20489;-84
2023/07/09 11:22:37;;;;;;;1999.90;999.90;;;34.10;91.70;;;;;;4937934;28;20049;-84
2023/07/09 11:25:12;;;;;;;1999.90;999.90;;;33.90;91.80;;;;;;4954067;28;20413;-84
2023/07/09 11:28:03;;;;;;;1998.03;999.90;;;33.80;92.10;;;;;;4937438;28;20039;-84
2023/07/09 11:30:29;;;;;;;1978.65;999.90;;;33.70;92.30;;;;;;4954152;28;20038;-84
2023/07/09 11:33:04;;;;;;;1936.22;999.90;;;33.40;92.00;;;;;;4937790;28;20039;-84
2023/07/09 11:35:45;;;;;;;1787.47;999.90;;;33.40;92.30;;;;;;4986062;28;20034;-84
2023/07/09 11:38:24;;;;;;;1920.78;999.90;;;33.40;93.00;;;;;;4938062;28;20074;-84
2023/07/09 11:40:52;;;;;;;1938.35;999.90;;;33.60;93.00;;;;;;4953593;28;20128;-84
2023/07/09 11:43:29;;;;;;;1795.38;999.90;;;33.70;92.10;;;;;;4952941;28;20054;-83
2023/07/09 11:45:58;;;;;;;1760.30;999.90;;;33.50;92.70;;;;;;4954115;28;20509;-84
2023/07/09 11:48:27;;;;;;;1893.88;999.90;;;33.40;92.40;;;;;;4953569;28;20067;-84
2023/07/09 11:50:54;;;;;;;1795.70;999.90;;;33.60;92.20;;;;;;4953819;28;20070;-84
2023/07/09 11:53:22;;;;;;;1860.22;999.90;;;33.80;92.30;;;;;;4937586;28;20050;-84
2023/07/09 11:55:51;;;;;;;1999.90;999.90;;;33.90;92.50;;;;;;4937638;28;20125;-84
2023/07/09 11:58:21;;;;;;;1982.90;999.90;;;34.20;92.30;;;;;;4985296;28;20038;-84
2023/07/09 12:00:53;;;;;;;1999.90;999.90;;;34.30;92.10;;;;;;4953294;28;20066;-84
2023/07/09 12:03:27;;;;;;;1999.90;999.90;;;34.50;91.90;;;;;;4936657;28;20070;-84
2023/07/09 12:05:55;;;;;;;1842.47;999.90;;;34.40;91.40;;;;;;4971571;28;20046;-84
2023/07/09 12:08:30;;;;;;;1970.35;999.90;;;34.30;91.50;;;;;;4986386;28;20046;-84
2023/07/09 12:10:55;;;;;;;1942.53;999.90;;;34.10;91.50;;;;;;4953659;28;20547;-83
2023/07/09 12:13:21;;;;;;;1999.90;999.90;;;34.00;91.30;;;;;;4937723;28;20038;-84
2023/07/09 12:15:47;;;;;;;1999.90;999.90;;;34.10;91.60;;;;;;4937439;28;20039;-84
2023/07/09 12:18:15;;;;;;;1999.90;999.90;;;34.00;91.30;;;;;;4938358;28;20054;-83
2023/07/09 12:20:51;;;;;;;1999.90;999.90;;;33.70;91.60;;;;;;4985667;28;20050;-84
2023/07/09 12:23:30;;;;;;;1999.90;999.90;;;33.70;91.90;;;;;;4970706;28;20066;-84
2023/07/09 12:26:00;;;;;;;1909.63;999.90;;;33.60;92.10;;;;;;4970119;28;20069;-84
2023/07/09 12:28:27;;;;;;;1999.90;999.90;;;33.70;92.40;;;;;;4985059;28;20039;-83
2023/07/09 12:30:53;;;;;;;1947.53;999.90;;;33.80;92.00;;;;;;4953147;28;20493;-84